Time;durP1;ratioP1;P1;durP2;ratioP2;P2;SDS_P1;SDS_P2;PMS_P1;PMS_P2;Temp;Humidity;BMP_temperature;BMP_pressure;BME280_temperature;BME280_humidity;BME280_pressure;Samples;Min_cycle;Max_cycle;Signal;HPM_P1;HPM_P2
2021/09/23 00:00:07;;;;;;;4.43;1.33;;;;;;;22.76;56.65;101881.34;5049424;28;20064;-64
2021/09/23 00:05:11;;;;;;;2.78;1.15;;;;;;;22.73;56.52;101868.38;5013812;28;20038;-64
2021/09/23 00:07:37;;;;;;;1.65;0.90;;;;;;;22.73;56.69;101874.53;5037440;28;20540;-64
2021/09/23 00:10:04;;;;;;;2.50;0.80;;;;;;;22.75;56.44;101880.53;5049769;28;20087;-64
2021/09/23 00:12:29;;;;;;;2.58;1.00;;;;;;;22.74;56.61;101870.00;5049421;28;20516;-64
2021/09/23 00:14:55;;;;;;;2.22;1.00;;;;;;;22.73;56.59;101874.53;5031394;28;20043;-63
2021/09/23 00:17:20;;;;;;;3.20;0.90;;;;;;;22.73;56.66;101877.22;5049011;28;20037;-64
2021/09/23 00:19:46;;;;;;;2.78;1.00;;;;;;;22.74;56.46;101878.03;5050358;28;20543;-64
2021/09/23 00:22:11;;;;;;;2.13;0.80;;;;;;;22.74;56.97;101880.72;5049555;28;20091;-64
2021/09/23 00:24:37;;;;;;;2.08;0.93;;;;;;;22.74;56.96;101883.38;5049747;28;20094;-64
2021/09/23 00:27:03;;;;;;;2.65;0.80;;;;;;;22.73;56.60;101877.22;5031978;28;20039;-64
2021/09/23 00:29:29;;;;;;;4.18;0.98;;;;;;;22.74;56.90;101872.69;5048905;28;20041;-64
2021/09/23 00:31:55;;;;;;;4.00;1.00;;;;;;;22.74;56.82;101875.38;5048781;28;20451;-64
2021/09/23 00:34:20;;;;;;;2.40;0.93;;;;;;;22.74;56.96;101876.19;5031720;28;20113;-64
2021/09/23 00:36:46;;;;;;;2.75;1.00;;;;;;;22.74;57.08;101873.50;5049525;28;20040;-64
2021/09/23 00:39:11;;;;;;;3.80;1.20;;;;;;;22.74;57.03;101873.50;5049860;28;20028;-64
2021/09/23 00:41:36;;;;;;;2.03;0.73;;;;;;;22.75;56.93;101874.34;5049545;28;20040;-64
2021/09/23 00:44:21;;;;;;;2.53;1.00;;;;;;;22.70;56.79;101869.53;5049445;28;20033;-64
2021/09/23 00:46:48;;;;;;;1.95;0.80;;;;;;;22.74;56.83;101867.34;5048566;28;20067;-64
2021/09/23 00:49:14;;;;;;;2.78;0.98;;;;;;;22.75;56.98;101882.38;5049919;28;20036;-64
2021/09/23 00:51:42;;;;;;;1.80;0.90;;;;;;;22.74;57.02;101873.50;5031209;28;20041;-64
2021/09/23 00:54:08;;;;;;;2.17;1.00;;;;;;;22.76;56.97;101876.00;5049307;28;20476;-64
2021/09/23 00:56:34;;;;;;;2.40;0.90;;;;;;;22.75;56.81;101869.00;5049047;28;20091;-64
2021/09/23 00:59:00;;;;;;;2.45;0.80;;;;;;;22.75;57.09;101863.66;5031548;28;20036;-64
2021/09/23 01:01:25;;;;;;;0.68;0.55;;;;;;;22.74;57.18;101862.81;5047792;28;20152;-64
2021/09/23 01:03:52;;;;;;;3.75;0.93;;;;;;;22.75;57.33;101852.94;5049308;28;20453;-63
2021/09/23 01:06:17;;;;;;;2.45;0.90;;;;;;;22.75;57.36;101856.44;5049167;28;20037;-64
2021/09/23 01:08:54;;;;;;;1.35;0.65;;;;;;;22.71;57.18;101861.31;5047944;28;20056;-63
2021/09/23 01:11:19;;;;;;;3.05;0.60;;;;;;;22.75;57.21;101851.09;5049013;28;20464;-64
2021/09/23 01:13:45;;;;;;;2.63;0.90;;;;;;;22.75;57.34;101843.06;5049127;28;20044;-64
2021/09/23 01:16:13;;;;;;;2.20;0.85;;;;;;;22.74;57.43;101840.59;5048699;28;20091;-64
2021/09/23 01:18:40;;;;;;;1.83;0.68;;;;;;;22.76;57.34;101843.91;5031281;28;20033;-63
2021/09/23 01:21:06;;;;;;;1.80;0.70;;;;;;;22.76;57.42;101831.34;5049139;28;20041;-63
2021/09/23 01:23:43;;;;;;;1.30;0.73;;;;;;;22.72;57.66;101832.72;5048692;28;20049;-64
2021/09/23 01:26:17;;;;;;;1.48;0.80;;;;;;;22.73;57.42;101830.91;5049167;28;20036;-64
2021/09/23 01:28:43;;;;;;;2.03;0.70;;;;;;;22.74;57.35;101829.88;5048855;28;20037;-64
2021/09/23 01:31:09;;;;;;;1.05;0.60;;;;;;;22.76;57.48;101825.16;5047934;28;20627;-64
2021/09/23 01:33:37;;;;;;;2.50;0.70;;;;;;;22.75;57.68;101816.31;5048353;28;20033;-64
2021/09/23 01:36:03;;;;;;;1.02;0.65;;;;;;;22.76;57.76;101809.13;5049355;28;20127;-64
2021/09/23 01:38:30;;;;;;;0.82;0.60;;;;;;;22.75;57.49;101802.94;5048455;28;20026;-64
2021/09/23 01:40:56;;;;;;;2.25;0.95;;;;;;;22.75;57.92;101802.94;5048967;28;20033;-64
2021/09/23 01:43:23;;;;;;;1.45;0.80;;;;;;;22.75;57.69;101800.28;5047911;28;20108;-64
2021/09/23 01:45:48;;;;;;;2.65;0.80;;;;;;;22.75;57.64;101800.28;5031499;28;20068;-64
2021/09/23 01:48:14;;;;;;;2.10;0.68;;;;;;;22.75;57.56;101799.44;5048829;28;20119;-64
2021/09/23 01:50:40;;;;;;;0.82;0.60;;;;;;;22.74;58.04;101795.13;5048802;28;20825;-64
2021/09/23 01:53:06;;;;;;;1.70;0.70;;;;;;;22.74;57.68;101789.78;5048361;28;20496;-64
2021/09/23 01:55:31;;;;;;;1.08;0.52;;;;;;;22.74;57.89;101781.75;5049204;28;20037;-64
2021/09/23 01:57:57;;;;;;;1.70;0.60;;;;;;;22.75;57.86;101791.41;5048839;28;20119;-65
2021/09/23 02:00:22;;;;;;;1.33;0.73;;;;;;;22.74;57.95;101781.75;5047706;28;20095;-64
2021/09/23 02:02:53;;;;;;;1.55;0.70;;;;;;;22.74;57.75;101782.56;5048289;28;20037;-63
2021/09/23 02:05:19;;;;;;;1.42;0.60;;;;;;;22.76;58.11;101777.03;5049927;28;20043;-64
2021/09/23 02:07:44;;;;;;;1.23;0.60;;;;;;;22.75;57.83;101778.88;5052204;28;20041;-64
2021/09/23 02:10:11;;;;;;;0.63;0.50;;;;;;;22.75;57.82;101783.41;5052584;28;20136;-64
2021/09/23 02:12:36;;;;;;;1.08;0.60;;;;;;;22.74;58.02;101774.53;5051698;28;20119;-64
2021/09/23 02:15:03;;;;;;;1.00;0.70;;;;;;;22.75;58.18;101778.03;5051136;28;20055;-63
2021/09/23 02:17:30;;;;;;;1.30;0.52;;;;;;;22.74;58.00;101785.25;5029937;28;20438;-63
2021/09/23 02:19:56;;;;;;;1.83;0.60;;;;;;;22.75;57.93;101783.41;5032197;28;20033;-63
2021/09/23 02:22:22;;;;;;;0.43;0.43;;;;;;;22.74;57.87;101797.78;5031917;28;20056;-64
2021/09/23 02:24:48;;;;;;;0.90;0.40;;;;;;;22.75;58.11;101791.41;5032106;28;20033;-64
2021/09/23 02:27:13;;;;;;;1.02;0.68;;;;;;;22.75;58.10;101796.78;5042603;28;20045;-64
2021/09/23 02:29:39;;;;;;;1.27;0.40;;;;;;;22.73;58.06;101794.28;5051720;28;20068;-64
2021/09/23 02:32:05;;;;;;;1.27;0.70;;;;;;;22.74;57.93;101792.44;5051201;28;20084;-64
2021/09/23 02:34:32;;;;;;;1.42;0.50;;;;;;;22.74;58.13;101787.09;5051861;28;20029;-64
2021/09/23 02:36:57;;;;;;;1.17;0.50;;;;;;;22.74;58.32;101792.44;5051132;28;20449;-63
2021/09/23 02:39:23;;;;;;;2.20;0.50;;;;;;;22.74;58.46;101787.91;5051935;28;20021;-64
2021/09/23 02:41:49;;;;;;;0.95;0.47;;;;;;;22.75;58.18;101786.06;5051633;28;20060;-64
2021/09/23 02:44:14;;;;;;;0.43;0.40;;;;;;;22.74;58.46;101779.91;5051905;28;20041;-64
2021/09/23 02:46:40;;;;;;;2.42;0.50;;;;;;;22.74;58.32;101777.22;5050125;28;20116;-64
2021/09/23 02:49:06;;;;;;;1.40;0.52;;;;;;;22.75;58.06;101784.22;5051046;28;20044;-64
2021/09/23 02:51:32;;;;;;;0.65;0.40;;;;;;;22.76;58.47;101774.34;5051258;28;20465;-64
2021/09/23 02:53:57;;;;;;;0.40;0.40;;;;;;;22.75;58.32;101770.84;5051136;28;20469;-64
2021/09/23 02:56:23;;;;;;;0.50;0.40;;;;;;;22.74;58.47;101771.88;5050956;28;20091;-64
2021/09/23 02:58:50;;;;;;;0.77;0.50;;;;;;;22.75;58.40;101770.84;5029589;28;20029;-64
2021/09/23 03:01:17;;;;;;;0.40;0.40;;;;;;;22.76;58.45;101774.34;5031313;28;20449;-64
2021/09/23 03:03:43;;;;;;;0.50;0.47;;;;;;;22.75;58.47;101775.38;5031340;28;20033;-64
2021/09/23 03:06:09;;;;;;;1.17;0.40;;;;;;;22.76;58.26;101777.03;5029619;28;20033;-64
2021/09/23 03:08:34;;;;;;;1.52;0.60;;;;;;;22.75;58.28;101780.72;5050505;28;20064;-64
2021/09/23 03:11:00;;;;;;;0.65;0.40;;;;;;;22.74;58.20;101779.91;5051545;28;20052;-64
2021/09/23 03:13:25;;;;;;;0.40;0.40;;;;;;;22.75;58.22;101778.03;5051056;28;20719;-64
2021/09/23 03:15:51;;;;;;;1.17;0.55;;;;;;;22.73;58.30;101780.91;5051002;28;20039;-63
2021/09/23 03:18:16;;;;;;;1.15;0.50;;;;;;;22.75;58.25;101783.41;5031781;28;20037;-64
2021/09/23 03:20:44;;;;;;;0.52;0.43;;;;;;;22.74;58.21;101781.75;5050839;28;20033;-64
2021/09/23 03:23:09;;;;;;;0.70;0.40;;;;;;;22.74;58.54;101779.91;5044714;28;20136;-64
2021/09/23 03:25:35;;;;;;;0.73;0.40;;;;;;;22.75;58.19;101780.72;5030141;28;20132;-64
2021/09/23 03:28:00;;;;;;;0.45;0.40;;;;;;;22.74;58.08;101781.75;5031532;28;20396;-64
2021/09/23 03:30:26;;;;;;;0.40;0.40;;;;;;;22.73;58.39;101788.94;5031379;28;20033;-64
2021/09/23 03:32:52;;;;;;;1.15;0.60;;;;;;;22.74;58.25;101792.44;5028905;28;20381;-64
2021/09/23 03:35:18;;;;;;;0.88;0.40;;;;;;;22.73;57.89;101788.13;5030917;28;20442;-64
2021/09/23 03:37:45;;;;;;;0.75;0.60;;;;;;;22.73;58.18;101783.59;5045360;28;20083;-64
2021/09/23 03:40:10;;;;;;;0.45;0.45;;;;;;;22.73;57.95;101785.44;5050313;28;20048;-64
2021/09/23 03:42:36;;;;;;;0.73;0.50;;;;;;;22.73;58.01;101796.13;5032361;28;20033;-64
2021/09/23 03:45:04;;;;;;;0.40;0.40;;;;;;;22.71;57.83;101783.75;5032820;28;20080;-64
2021/09/23 03:47:30;;;;;;;0.40;0.40;;;;;;;22.71;58.13;101780.25;5049940;28;20180;-64
2021/09/23 03:49:56;;;;;;;0.40;0.40;;;;;;;22.71;57.91;101781.09;5032532;28;20512;-64
2021/09/23 03:52:22;;;;;;;0.73;0.40;;;;;;;22.71;57.96;101777.59;5049552;28;20045;-64
2021/09/23 03:54:47;;;;;;;0.43;0.40;;;;;;;22.71;57.69;101785.59;5050354;28;20128;-64
2021/09/23 03:57:13;;;;;;;1.10;0.50;;;;;;;22.69;57.51;101785.81;5049294;28;20049;-64
2021/09/23 03:59:38;;;;;;;0.40;0.30;;;;;;;22.68;57.85;101780.66;5049936;28;20067;-63
2021/09/23 04:02:04;;;;;;;0.88;0.50;;;;;;;22.69;57.77;101785.81;5032874;28;20072;-63
2021/09/23 04:04:29;;;;;;;0.60;0.50;;;;;;;22.69;57.93;101785.81;5012783;28;20045;-64
2021/09/23 04:06:55;;;;;;;0.40;0.40;;;;;;;22.70;57.78;101779.44;5029288;28;20029;-64
2021/09/23 04:09:20;;;;;;;0.50;0.30;;;;;;;22.68;57.50;101775.31;5030158;28;20132;-64
2021/09/23 04:11:46;;;;;;;0.73;0.40;;;;;;;22.70;57.52;101779.44;5045558;28;20037;-64
2021/09/23 04:14:11;;;;;;;0.30;0.30;;;;;;;22.69;57.79;101777.78;5049480;28;20040;-64
2021/09/23 04:16:37;;;;;;;0.57;0.57;;;;;;;22.68;57.39;101778.81;5014988;28;20069;-64
2021/09/23 04:19:03;;;;;;;0.60;0.47;;;;;;;22.70;57.74;101781.28;5049722;28;20126;-63
2021/09/23 04:21:29;;;;;;;0.60;0.40;;;;;;;22.70;57.67;101771.41;5049929;28;20094;-64
2021/09/23 04:23:55;;;;;;;0.63;0.43;;;;;;;22.72;57.74;101771.22;5049326;28;20137;-64
2021/09/23 04:26:20;;;;;;;0.52;0.40;;;;;;;22.71;57.71;101781.09;5050033;28;20033;-63
2021/09/23 04:28:46;;;;;;;0.50;0.50;;;;;;;22.71;57.75;101773.06;5049018;28;20060;-64
2021/09/23 04:31:11;;;;;;;0.80;0.40;;;;;;;22.71;57.52;101769.56;5027553;28;20073;-63
2021/09/23 04:33:37;;;;;;;0.32;0.32;;;;;;;22.71;57.61;101766.88;5029350;28;20083;-64
2021/09/23 04:36:02;;;;;;;0.40;0.40;;;;;;;22.71;57.30;101772.22;5029044;28;20484;-64
2021/09/23 04:38:28;;;;;;;0.45;0.45;;;;;;;22.72;57.26;101784.59;5029806;28;20473;-64
2021/09/23 04:40:54;;;;;;;0.88;0.50;;;;;;;22.70;57.50;101776.75;5029502;28;20086;-63
2021/09/23 04:43:20;;;;;;;0.60;0.50;;;;;;;22.70;57.31;101776.75;5029524;28;20121;-63
2021/09/23 04:45:47;;;;;;;0.60;0.50;;;;;;;22.68;57.11;101765.44;5042908;28;20041;-64
2021/09/23 04:48:13;;;;;;;0.50;0.40;;;;;;;22.70;57.08;101771.41;5048663;28;20116;-64
2021/09/23 04:50:38;;;;;;;0.38;0.38;;;;;;;22.68;57.16;101767.28;5049460;28;20124;-64
2021/09/23 04:53:04;;;;;;;0.40;0.40;;;;;;;22.68;57.23;101772.63;5048986;28;20127;-63
2021/09/23 04:55:30;;;;;;;1.92;0.40;;;;;;;22.68;57.00;101783.31;5049308;28;20061;-64
2021/09/23 04:57:55;;;;;;;0.73;0.50;;;;;;;22.67;57.05;101776.31;5048863;28;20044;-64
2021/09/23 05:00:21;;;;;;;0.50;0.50;;;;;;;22.67;57.02;101770.97;5048267;28;20383;-64
2021/09/23 05:02:47;;;;;;;0.50;0.50;;;;;;;22.67;56.94;101773.66;5048373;28;20790;-64
2021/09/23 05:05:12;;;;;;;3.08;0.88;;;;;;;22.68;57.07;101783.31;5049124;28;20041;-64
2021/09/23 05:07:38;;;;;;;0.52;0.40;;;;;;;22.66;56.75;101788.88;5049180;28;20083;-65
2021/09/23 05:10:05;;;;;;;0.50;0.50;;;;;;;22.66;56.54;101780.84;5048276;28;20049;-64
2021/09/23 05:12:30;;;;;;;0.80;0.60;;;;;;;22.65;56.75;101781.88;5048389;28;20151;-64
2021/09/23 05:14:56;;;;;;;0.57;0.50;;;;;;;22.65;56.51;101779.19;5048843;28;20125;-64
2021/09/23 05:17:21;;;;;;;0.30;0.30;;;;;;;22.64;56.68;101779.41;5030800;28;20037;-64
2021/09/23 05:19:47;;;;;;;0.43;0.40;;;;;;;22.64;56.49;101784.75;5049023;28;20098;-64
2021/09/23 05:22:13;;;;;;;0.75;0.50;;;;;;;22.64;56.61;101782.06;5048197;28;20045;-64
2021/09/23 05:24:38;;;;;;;0.52;0.45;;;;;;;22.64;56.39;101782.91;5049227;28;20043;-64
2021/09/23 05:27:04;;;;;;;0.65;0.50;;;;;;;22.63;56.26;101786.59;5048746;28;20090;-63
2021/09/23 05:29:30;;;;;;;0.40;0.40;;;;;;;22.64;56.50;101800.78;5048415;28;20524;-64
2021/09/23 05:31:55;;;;;;;0.65;0.50;;;;;;;22.63;56.45;101801.81;5030447;28;20037;-63
2021/09/23 05:34:21;;;;;;;1.10;0.50;;;;;;;22.64;56.14;101803.47;5049194;28;20165;-64
2021/09/23 05:36:46;;;;;;;0.40;0.40;;;;;;;22.63;56.33;101801.81;5047807;28;20332;-63
2021/09/23 05:39:12;;;;;;;0.73;0.47;;;;;;;22.63;56.16;101797.28;5047941;28;20116;-62
2021/09/23 05:41:41;;;;;;;0.50;0.50;;;;;;;22.63;56.42;101799.97;5051441;28;20044;-64
2021/09/23 05:44:09;;;;;;;1.27;0.50;;;;;;;22.64;56.28;101800.78;5035451;28;20037;-64
2021/09/23 05:46:35;;;;;;;2.30;0.60;;;;;;;22.64;56.03;101790.91;5031090;28;20068;-63
2021/09/23 05:49:00;;;;;;;3.65;0.40;;;;;;;22.63;56.50;101797.28;5036765;28;20468;-64
2021/09/23 05:51:26;;;;;;;1.38;0.70;;;;;;;22.63;56.38;101812.50;5052636;28;20036;-63
2021/09/23 05:53:51;;;;;;;1.27;0.50;;;;;;;22.64;56.51;101817.66;5052206;28;20763;-63
2021/09/23 05:56:17;;;;;;;1.33;0.40;;;;;;;22.64;56.38;101824.84;5052684;28;20384;-63
2021/09/23 05:58:42;;;;;;;1.38;0.40;;;;;;;22.64;56.51;101819.50;5052472;28;20036;-64
2021/09/23 06:01:08;;;;;;;1.02;0.40;;;;;;;22.64;56.44;101819.50;5050883;28;20035;-63
2021/09/23 06:03:33;;;;;;;1.65;0.45;;;;;;;22.63;56.21;101826.72;5034335;28;20490;-63
2021/09/23 06:05:59;;;;;;;0.73;0.40;;;;;;;22.64;56.20;101819.50;5034100;28;20037;-64
2021/09/23 06:08:24;;;;;;;0.68;0.40;;;;;;;22.62;55.97;101816.22;5052245;28;20041;-63
2021/09/23 06:10:50;;;;;;;1.75;0.50;;;;;;;22.62;55.76;101814.34;5052690;28;20068;-63
2021/09/23 06:13:15;;;;;;;0.85;0.50;;;;;;;22.61;55.85;101831.44;5052345;28;20040;-63
2021/09/23 06:15:41;;;;;;;0.50;0.40;;;;;;;22.60;55.70;101842.31;5052105;28;20029;-63
2021/09/23 06:18:06;;;;;;;0.95;0.40;;;;;;;22.60;55.70;101848.50;5051088;28;20044;-63
2021/09/23 06:20:32;;;;;;;0.63;0.40;;;;;;;22.60;55.39;101853.00;5051784;28;20033;-63
2021/09/23 06:22:57;;;;;;;0.90;0.40;;;;;;;22.58;55.49;101853.22;5051270;28;20487;-63
2021/09/23 06:25:24;;;;;;;1.63;0.57;;;;;;;22.58;55.30;101853.22;5030794;28;20037;-63
2021/09/23 06:27:49;;;;;;;0.60;0.40;;;;;;;22.58;55.35;101860.41;5030497;28;20034;-63
2021/09/23 06:30:17;;;;;;;3.63;0.80;;;;;;;22.57;55.11;101867.59;5032157;28;20132;-63
2021/09/23 06:32:43;;;;;;;0.88;0.50;;;;;;;22.58;55.04;101877.28;5033191;28;20540;-63
2021/09/23 06:35:09;;;;;;;0.93;0.45;;;;;;;22.57;55.43;101882.81;5051800;28;20033;-64
2021/09/23 06:37:35;;;;;;;1.40;0.55;;;;;;;22.56;55.03;101887.31;5051004;28;20115;-63
2021/09/23 06:40:00;;;;;;;0.43;0.40;;;;;;;22.56;55.01;101881.97;5051587;28;20064;-63
2021/09/23 06:42:26;;;;;;;2.22;0.52;;;;;;;22.56;54.97;101892.66;5051313;28;20037;-63
2021/09/23 06:44:51;;;;;;;0.93;0.50;;;;;;;22.56;54.84;101892.66;5050839;28;20498;-63
2021/09/23 06:47:17;;;;;;;0.70;0.43;;;;;;;22.57;55.00;101898.88;5051427;28;20432;-63
2021/09/23 06:49:42;;;;;;;0.63;0.40;;;;;;;22.55;55.05;101890.19;5051572;28;20044;-63
2021/09/23 06:52:08;;;;;;;1.35;0.55;;;;;;;22.55;54.90;101901.69;5050904;28;20516;-63
2021/09/23 06:54:34;;;;;;;0.90;0.50;;;;;;;22.55;54.45;101896.34;5051111;28;20045;-63
2021/09/23 06:56:59;;;;;;;1.42;0.50;;;;;;;22.56;54.76;101903.34;5032886;28;20048;-63
2021/09/23 06:59:25;;;;;;;1.00;0.52;;;;;;;22.56;54.70;101914.06;5033672;28;20043;-63
2021/09/23 07:01:51;;;;;;;1.98;0.50;;;;;;;22.57;54.73;101899.69;5043101;28;20040;-63
2021/09/23 07:04:16;;;;;;;1.77;0.50;;;;;;;22.58;54.57;101903.19;5051640;28;20036;-64
2021/09/23 07:06:42;;;;;;;0.82;0.52;;;;;;;22.57;54.47;101910.38;5051491;28;20033;-63
2021/09/23 07:09:10;;;;;;;0.95;0.50;;;;;;;22.58;54.54;101905.88;5049622;28;20041;-64
2021/09/23 07:11:36;;;;;;;3.67;0.90;;;;;;;22.57;54.47;101905.03;5045842;28;20044;-64
2021/09/23 07:14:02;;;;;;;2.38;0.80;;;;;;;22.58;54.42;101901.34;5030374;28;20033;-64
2021/09/23 07:16:27;;;;;;;1.60;0.55;;;;;;;22.59;54.70;101913.69;5037656;28;20120;-64
2021/09/23 07:18:53;;;;;;;1.85;0.70;;;;;;;22.59;54.35;101920.91;5051245;28;20194;-64
2021/09/23 07:21:19;;;;;;;2.95;0.73;;;;;;;22.58;54.82;101922.75;5035773;28;20503;-63
2021/09/23 07:23:44;;;;;;;2.10;0.65;;;;;;;22.59;54.48;101927.06;5030626;28;20553;-63
2021/09/23 07:26:10;;;;;;;1.67;0.60;;;;;;;22.60;54.65;101927.91;5029565;28;20056;-63
2021/09/23 07:28:36;;;;;;;3.13;0.85;;;;;;;22.60;54.71;101928.72;5029238;28;20047;-64
2021/09/23 07:31:02;;;;;;;1.38;0.55;;;;;;;22.59;54.50;101937.75;5030567;28;20025;-63
2021/09/23 07:33:28;;;;;;;4.88;0.82;;;;;;;22.59;54.88;101942.28;5035541;28;20049;-63
2021/09/23 07:35:54;;;;;;;3.00;0.90;;;;;;;22.58;54.51;101940.63;5029049;28;20475;-63
2021/09/23 07:38:20;;;;;;;2.50;0.88;;;;;;;22.58;54.76;101943.31;5030348;28;20519;-63
2021/09/23 07:40:46;;;;;;;2.50;0.65;;;;;;;22.58;54.82;101943.31;5034731;28;20448;-63
2021/09/23 07:43:11;;;;;;;2.97;0.80;;;;;;;22.59;54.64;101944.97;5029795;28;20044;-63
2021/09/23 07:45:37;;;;;;;2.97;0.80;;;;;;;22.55;54.07;101939.13;5037860;28;20477;-61
2021/09/23 07:48:03;;;;;;;9.70;0.95;;;;;;;22.52;53.80;101941.38;5029687;28;20033;-62
2021/09/23 07:50:28;;;;;;;4.43;0.98;;;;;;;22.49;53.85;101942.59;5029969;28;20037;-63
2021/09/23 07:52:53;;;;;;;4.85;1.00;;;;;;;22.46;53.76;101937.63;5038122;28;20029;-63
2021/09/23 07:55:19;;;;;;;9.02;1.85;;;;;;;22.44;53.54;101942.31;5042944;28;20527;-62
2021/09/23 07:57:44;;;;;;;5.18;1.23;;;;;;;22.42;53.36;101944.38;5030070;28;20370;-63
2021/09/23 08:00:10;;;;;;;4.25;0.95;;;;;;;22.36;52.72;101934.41;5028884;28;20149;-63
2021/09/23 08:02:36;;;;;;;5.90;1.05;;;;;;;22.32;53.04;101935.81;5029439;28;20192;-62
2021/09/23 08:05:02;;;;;;;3.90;1.42;;;;;;;22.30;52.75;101935.16;5029750;28;20451;-64
2021/09/23 08:07:27;;;;;;;5.35;0.90;;;;;;;22.28;52.67;101943.38;5029598;28;20507;-62
2021/09/23 08:09:52;;;;;;;8.60;1.05;;;;;;;22.27;52.56;101936.38;5043641;28;20053;-62
2021/09/23 08:12:18;;;;;;;7.55;1.25;;;;;;;22.28;52.66;101923.84;5050069;28;20048;-63
2021/09/23 08:14:44;;;;;;;8.57;1.10;;;;;;;22.28;52.49;101937.19;5026191;28;20039;-63
2021/09/23 08:17:10;;;;;;;2.85;1.10;;;;;;;22.29;52.84;101926.31;5027533;28;20034;-62
2021/09/23 08:19:36;;;;;;;7.25;1.52;;;;;;;22.30;52.54;101913.78;5030296;28;20064;-62
2021/09/23 08:22:06;;;;;;;6.28;0.90;;;;;;;22.29;52.22;101912.13;5011513;28;20033;-62
2021/09/23 08:24:32;;;;;;;7.10;1.23;;;;;;;22.27;52.43;101917.66;5030417;28;20130;-63
2021/09/23 08:26:57;;;;;;;4.85;1.20;;;;;;;22.25;52.08;101916.16;5029243;28;20037;-62
2021/09/23 08:29:23;;;;;;;5.05;1.20;;;;;;;22.24;51.71;101917.19;5030115;28;20029;-62
2021/09/23 08:31:48;;;;;;;6.45;1.00;;;;;;;22.23;51.84;101910.19;5029393;28;20092;-63
2021/09/23 08:34:16;;;;;;;7.38;1.33;;;;;;;22.22;51.70;101905.84;5029761;28;20200;-62
2021/09/23 08:36:42;;;;;;;5.22;1.40;;;;;;;22.19;51.71;101911.59;5029090;28;20033;-62
2021/09/23 08:39:07;;;;;;;7.47;1.23;;;;;;;22.18;51.12;101904.59;5029545;28;20489;-62
2021/09/23 08:41:32;;;;;;;3.63;0.93;;;;;;;22.15;51.20;101896.94;5012192;28;20476;-62
2021/09/23 08:43:59;;;;;;;6.00;1.13;;;;;;;22.13;51.25;101885.63;5029621;28;20120;-62
2021/09/23 08:46:27;;;;;;;7.90;1.45;;;;;;;22.13;51.06;101899.81;5028061;28;20041;-62
2021/09/23 08:48:52;;;;;;;6.38;1.42;;;;;;;22.11;50.65;101889.31;5029360;28;20048;-63
2021/09/23 08:51:19;;;;;;;8.77;1.30;;;;;;;22.09;50.51;101880.66;5011969;28;20033;-62
2021/09/23 08:53:44;;;;;;;6.00;1.50;;;;;;;22.09;50.60;101879.78;5029331;28;20113;-62
2021/09/23 08:56:13;;;;;;;8.93;2.53;;;;;;;22.08;50.50;101884.31;5029374;28;20128;-62
2021/09/23 08:58:39;;;;;;;8.73;1.70;;;;;;;22.10;50.57;101895.69;5029707;28;20026;-62
2021/09/23 09:01:08;;;;;;;8.88;2.00;;;;;;;22.09;50.19;101890.47;5029088;28;20021;-62
2021/09/23 09:03:36;;;;;;;7.90;1.90;;;;;;;22.09;50.41;101887.81;5029352;28;20051;-62
2021/09/23 09:06:13;;;;;;;9.55;1.95;;;;;;;22.05;50.02;101903.41;5011441;28;20397;-62
2021/09/23 09:08:41;;;;;;;7.57;1.48;;;;;;;22.07;50.19;101898.69;5011632;28;20120;-62
2021/09/23 09:11:12;;;;;;;6.45;1.55;;;;;;;22.05;49.72;101903.41;5011245;28;20377;-62
2021/09/23 09:13:41;;;;;;;9.65;1.80;;;;;;;22.06;50.21;101899.72;5029105;28;20041;-62
2021/09/23 09:16:11;;;;;;;6.65;1.67;;;;;;;22.05;49.77;101892.72;5031215;28;20111;-62
2021/09/23 09:18:38;;;;;;;7.80;2.25;;;;;;;22.05;50.00;101906.06;5033637;28;20025;-62
2021/09/23 09:21:16;;;;;;;8.10;1.83;;;;;;;22.03;49.91;101900.06;5033318;28;20041;-63
2021/09/23 09:23:46;;;;;;;12.05;2.00;;;;;;;22.03;50.07;101910.75;5032794;28;20033;-62
2021/09/23 09:26:41;;;;;;;8.02;2.03;;;;;;;22.03;49.65;101905.41;5033024;28;20105;-62
2021/09/23 09:29:09;;;;;;;6.78;1.92;;;;;;;22.05;49.64;101900.72;5033091;28;20037;-62
2021/09/23 09:31:47;;;;;;;9.48;2.78;;;;;;;22.02;49.61;101893.06;5014922;28;20487;-62
2021/09/23 09:34:13;;;;;;;8.18;1.50;;;;;;;22.05;49.68;101898.06;5033010;28;20034;-62
2021/09/23 09:36:39;;;;;;;7.20;1.90;;;;;;;;;;5033046;28;20043;-62
2021/09/23 09:39:14;;;;;;;9.10;2.13;;;;;;;22.03;49.71;101875.19;5032358;28;20026;-62
2021/09/23 09:41:42;;;;;;;7.78;1.90;;;;;;;22.04;49.54;101858.97;5033041;28;20036;-62
2021/09/23 09:44:11;;;;;;;8.10;1.85;;;;;;;22.03;49.26;101862.66;5032658;28;20037;-62
2021/09/23 09:46:41;;;;;;;7.18;2.03;;;;;;;22.04;49.53;101861.63;5032596;28;20166;-62
2021/09/23 09:49:07;;;;;;;9.00;1.92;;;;;;;22.03;49.33;101862.66;5014647;28;20045;-62
2021/09/23 09:51:38;;;;;;;6.25;1.67;;;;;;;22.02;49.41;101863.66;5015255;28;20493;-62
2021/09/23 09:54:06;;;;;;;7.63;2.08;;;;;;;22.04;49.23;101868.81;5014210;28;20025;-62
2021/09/23 09:56:32;;;;;;;7.25;2.35;;;;;;;22.03;49.06;101873.34;5032790;28;20029;-63
2021/09/23 09:59:07;;;;;;;6.72;1.70;;;;;;;22.01;49.27;101870.03;5014238;28;20524;-62
2021/09/23 10:01:33;;;;;;;8.85;2.03;;;;;;;22.02;49.48;101869.00;5044007;28;20058;-62
2021/09/23 10:04:00;;;;;;;6.55;1.95;;;;;;;22.03;49.56;101867.16;5052337;28;20033;-63
2021/09/23 10:06:26;;;;;;;8.43;1.85;;;;;;;;;;5052264;28;20037;-62
2021/09/23 10:08:51;;;;;;;9.73;2.20;;;;;;;;;;5051536;28;20041;-62
2021/09/23 10:11:17;;;;;;;9.60;2.30;;;;;;;22.04;49.38;101885.69;5052601;28;20677;-62
2021/09/23 10:13:43;;;;;;;7.45;1.85;;;;;;;;;;5034407;28;20040;-62
2021/09/23 10:16:09;;;;;;;9.52;2.05;;;;;;;22.05;49.39;101906.06;5051964;28;20029;-62
2021/09/23 10:18:35;;;;;;;8.73;2.65;;;;;;;22.05;49.39;101916.75;5034574;28;20490;-62
2021/09/23 10:21:02;;;;;;;8.82;2.15;;;;;;;22.05;49.08;101922.09;5052236;28;20153;-62
2021/09/23 10:23:29;;;;;;;10.70;2.67;;;;;;;;;;5033881;28;20067;-62
2021/09/23 10:25:59;;;;;;;10.25;2.28;;;;;;;22.05;49.10;101916.75;5034001;28;20058;-62
2021/09/23 10:28:26;;;;;;;7.25;2.10;;;;;;;22.07;49.21;101929.94;5051941;28;20500;-62
2021/09/23 10:30:51;;;;;;;8.07;2.38;;;;;;;22.08;49.21;101926.25;5052208;28;20044;-62
2021/09/23 10:33:17;;;;;;;9.18;2.35;;;;;;;22.08;49.02;101919.06;5051453;28;20139;-62
2021/09/23 10:35:44;;;;;;;10.27;2.63;;;;;;;22.09;49.14;101918.06;5052306;28;20120;-62
2021/09/23 10:38:11;;;;;;;10.57;2.75;;;;;;;22.09;48.86;101922.56;5051714;28;20247;-62
2021/09/23 10:40:41;;;;;;;9.77;1.90;;;;;;;22.09;48.89;101915.41;5051985;28;20057;-62
2021/09/23 10:43:14;;;;;;;10.48;2.20;;;;;;;22.09;49.03;101919.88;5052159;28;20048;-62
2021/09/23 10:45:40;;;;;;;9.70;2.38;;;;;;;22.09;48.64;101918.06;5051970;28;20033;-62
2021/09/23 10:48:07;;;;;;;10.43;2.70;;;;;;;22.09;48.84;101910.06;5051377;28;20049;-62
2021/09/23 10:50:34;;;;;;;7.28;2.50;;;;;;;22.08;48.79;101913.72;5051502;28;20473;-62
2021/09/23 10:53:01;;;;;;;7.88;2.33;;;;;;;22.06;48.58;101910.41;5050906;28;20405;-63
2021/09/23 10:55:32;;;;;;;8.68;2.17;;;;;;;22.07;48.40;101920.06;5051689;28;20087;-62
2021/09/23 10:57:58;;;;;;;8.60;1.92;;;;;;;22.08;48.76;101915.56;5051383;28;20132;-62
2021/09/23 11:00:31;;;;;;;10.07;2.35;;;;;;;22.07;48.47;101914.72;5048078;28;20064;-62
2021/09/23 11:02:57;;;;;;;8.93;2.50;;;;;;;22.12;48.73;101922.22;5031262;28;20087;-62
2021/09/23 11:05:23;;;;;;;9.65;2.40;;;;;;;22.14;48.62;101924.69;5031482;28;20044;-62
2021/09/23 11:07:52;;;;;;;10.10;2.65;;;;;;;22.15;48.93;101921.81;5013564;28;20040;-62
2021/09/23 11:10:22;;;;;;;8.25;2.03;;;;;;;22.16;48.56;101915.47;5030898;28;20148;-62
2021/09/23 11:12:53;;;;;;;13.75;2.65;;;;;;;22.19;48.45;101916.94;5031374;28;20025;-62
2021/09/23 11:15:22;;;;;;;5.95;1.95;;;;;;;22.18;48.68;101916.09;5031414;28;20068;-62
2021/09/23 11:17:48;;;;;;;8.48;2.10;;;;;;;22.20;48.70;101921.25;5030727;28;20029;-62
2021/09/23 11:20:18;;;;;;;11.73;2.28;;;;;;;22.21;48.55;101917.56;5030732;28;20393;-62
2021/09/23 11:22:47;;;;;;;10.82;2.20;;;;;;;22.19;48.28;101915.09;5030749;28;20029;-62
2021/09/23 11:25:20;;;;;;;8.45;2.17;;;;;;;22.19;48.41;101916.94;5031033;28;20068;-62